Tiempo atmosférico en la estación meteorológica de Ejea De Los Caballeros, Zaragoza (321 m.)



Fecha
DESCASC
Temp. máxima en grados centígrados (hora)
DESCASC
Temp. mínima en grados centígrados (hora)
DESCASC
Temp. media en grados centígrados
DESCASC
Racha de viento máxima en m/sg (hora)
DESCASC
Velocidad máxima media en intervalos de 10 minutos(hora)
DESCASC
Precipitaciones diarias en mm
DESCASC
Precipitaciones de 00:00 a 06:00 en mm
DESCASC
Precipitaciones de 06:00 a 12:00 en mm
DESCASC
Precipitaciones de 12:00 a 18:00 en mm
DESCASC
Precipitaciones de 18:00 a 24:00 en mm
DESCASC
14-07-2019 30.3 (17:20) 18.7 (00:00) 24.5 12.78 (06:10) 5.83 (06:10) 7.8 1.6 6.2 0 0
13-07-2019 35.1 (18:00) 18.6 (00:00) 26.8 7.5 (12:10) 4.17 (12:10) 0.4 0 0 0 0.4
12-07-2019 37.1 (16:20) 17.8 (00:00) 27.4 6.39 (18:40) 3.06 (19:00) 0 0 0 0 0
11-07-2019 35.9 (17:20) 16.6 (00:00) 26.3 6.94 (18:30) 2.78 (19:20) 0 0 0 0 0
10-07-2019 32.2 (17:40) 15.4 (00:00) 23.8 5.83 (01:50) 2.22 (18:00) 0 0 0 0 0
09-07-2019 26.5 (13:20) 17.2 (00:00) 21.9 8.33 (15:30) 2.5 (14:20) 0 0 0 0 0
08-07-2019 31.3 (13:30) 18.1 (00:00) 24.7 10.28 (22:10) 4.44 (22:10) 6.8 0 0 0 6.8
07-07-2019 36.1 (17:40) 19.1 (00:00) 27.6 5.28 (22:20) 2.22 (18:40) 0 0 0 0 0
06-07-2019 38.2 (16:50) 20.9 (07:10) 29.6 7.5 (19:40) 3.33 (19:40) 0 0 0 0 0
05-07-2019 37.5 (17:20) 20.8 (00:00) 29.1 7.22 (01:50) 2.22 (01:30) 0 0 0 0 0
04-07-2019 35.8 (16:30) 20.7 (00:00) 28.3 7.5 (14:40) 2.5 (18:40) 0 0 0 0 0
03-07-2019 36.6 (17:00) 18.8 (00:00) 27.7 8.61 (22:20) 2.78 (22:10) 0 0 0 0 0
02-07-2019 33.6 (17:10) 16.9 (05:30) 25.2 5 (16:40) 2.22 (15:00) 0 0 0 0 0
01-07-2019 34.8 (16:50) 18.4 (06:50) 26.6 8.06 (21:30) 2.5 (19:50) 0 0 0 0 0
30-06-2019 40.4 (17:30) 18.3 (07:50) 29.4 7.78 (18:20) 2.5 (01:50) 0 0 0 0 0
29-06-2019 42.2 (17:10) 20 (00:00) 31.1 7.78 (16:20) 2.22 (14:40) 0 0 0 0 0
28-06-2019 41.5 (16:50) 19 (00:00) 30.3 6.67 (00:30) 2.22 (00:10) 0 0 0 0 0
27-06-2019 39.3 (16:00) 21.7 (00:00) 30.5 11.67 (15:40) 3.33 (16:00) 0 0 0 0 0
26-06-2019 37.3 (17:00) 20.2 (00:00) 28.8 12.22 (18:30) 3.89 (18:30) 0 0 0 0 0
25-06-2019 34.9 (17:40) 17.3 (00:00) 26.1 8.61 (18:10) 2.5 (15:40) 0 0 0 0 0
24-06-2019 33.6 (16:50) 20.9 (00:00) 27.2 8.89 (02:00) 2.78 (05:30) 0 0 0 0 0
23-06-2019 34.6 (17:50) 19 (00:00) 26.8 8.61 (23:10) 2.5 (11:00) 0 0 0 0 0
22-06-2019 31.4 (17:30) 10.8 (00:00) 21.1 6.11 (17:20) 1.94 (16:50) 0 0 0 0 0
21-06-2019 25.7 (16:10) 14.9 (00:00) 20.3 7.22 (17:20) 2.5 (00:20) 4.2 4 0 0.2 0
20-06-2019 28.8 (15:40) 15.6 (00:00) 22.2 7.78 (19:50) 2.5 (19:40) 2.2 0 0 0 2.2
19-06-2019 -- (--) -- (--) -- -- (--) -- (--) -- -- -- -- 0
18-06-2019 -- (--) -- (--) -- -- (--) -- (--) -- 0 0 0 --
17-06-2019 34.4 (17:10) 14.8 (00:00) 24.6 4.72 (19:00) 1.67 (14:40) 0 0 0 0 0
16-06-2019 30.4 (17:00) 8.9 (00:00) 19.6 4.17 (00:40) 1.67 (17:10) 0 0 0 0 0

Gráficas

Temp. máximas Temp. mínimas Temp. medias Precipitaciones Rachas de viento máximas Velocidades máximas media en intervalos de 10 minutos

Datos horarios

Fecha y hora oficial Temperatura (ºC) Velocidad del viento (km/h) Dirección del viento Racha (km/h) Dirección de racha Precipitación (mm) Presión (hPa) Tendencia (hPa) Humedad (%)
2019-07-15 23:00:00 20.8 3 Sudoeste 15 Sudoeste 0 -- -- 60
2019-07-15 22:00:00 23 5 Oeste 21 Oeste 0 -- -- 51
2019-07-15 21:00:00 24.8 4 Sudoeste 27 Norte 0 -- -- 45
2019-07-15 20:00:00 26.7 6 Oeste 23 Noroeste 0 -- -- 38
2019-07-15 19:00:00 28 8 Norte 27 Nordeste 0 -- -- 35
2019-07-15 18:00:00 29.5 6 Oeste 27 Noroeste 0 -- -- 33
2019-07-15 17:00:00 30.3 7 Oeste 28 Noroeste 0 -- -- 33
2019-07-15 16:00:00 30 7 Oeste 24 Noroeste 0 -- -- 30
2019-07-15 15:00:00 29.6 8 Oeste 30 Noroeste 0 -- -- 30
2019-07-15 14:00:00 29.3 7 Oeste 30 Noroeste 0 -- -- 32
2019-07-15 13:00:00 28 8 Oeste 36 Noroeste 0 -- -- 38
2019-07-15 12:00:00 27.1 7 Oeste 25 Noroeste 0 -- -- 41
2019-07-15 11:00:00 25.2 6 Oeste 28 Noroeste 0 -- -- 51
2019-07-15 10:00:00 22.2 9 Oeste 27 Noroeste 0 -- -- 60
2019-07-15 09:00:00 19.6 9 Oeste 27 Noroeste 0 -- -- 68
2019-07-15 08:00:00 17.9 6 Oeste 23 Oeste 0 -- -- 74
2019-07-15 07:00:00 17 5 Oeste 24 Oeste 0 -- -- 76
2019-07-15 06:00:00 17.4 6 Oeste 24 Oeste 0 -- -- 74
2019-07-15 05:00:00 17.7 6 Oeste 19 Noroeste 0 -- -- 73
2019-07-15 04:00:00 17.7 5 Oeste 18 Oeste 0 -- -- 73
2019-07-15 03:00:00 18.1 5 Oeste 18 Oeste 0 -- -- 70
2019-07-15 02:00:00 18.6 5 Oeste 24 Noroeste 0 -- -- 67
2019-07-15 01:00:00 19.4 6 Oeste 16 Oeste 0 -- -- 61
2019-07-15 00:00:00 20.1 4 Sudoeste 17 Oeste 0 -- -- 58
2019-07-14 23:00:00 21.3 6 Oeste 22 Oeste 0 -- -- 56
2019-07-14 22:00:00 22.9 5 Oeste 22 Noroeste 0 -- -- 54
2019-07-14 21:00:00 24.9 5 Oeste 20 Oeste 0 -- -- 50
2019-07-14 20:00:00 26.4 5 Noroeste 22 Norte 0 -- -- 45
2019-07-14 19:00:00 27.6 6 Oeste 27 Noroeste 0 -- -- 44
2019-07-14 18:00:00 29.5 6 Oeste 22 Norte 0 -- -- 38
2019-07-14 17:00:00 30.2 6 Oeste 24 Noroeste 0 -- -- 39
2019-07-14 16:00:00 29.7 8 Oeste 25 Oeste 0 -- -- 42
2019-07-14 15:00:00 29.5 7 Oeste 24 Oeste 0 -- -- 47
2019-07-14 14:00:00 28.9 5 Oeste 15 Sudoeste 0 -- -- 53
2019-07-14 13:00:00 26.9 4 Oeste 14 Sudoeste 0 -- -- 60
2019-07-14 12:00:00 22.8 3 Sudoeste 11 Sudoeste 0 -- -- 77
2019-07-14 11:00:00 20.5 3 Sudoeste 10 Noroeste 0 -- -- 89
2019-07-14 10:00:00 19 2 Sur 14 Noroeste 0.8 -- -- 92
2019-07-14 09:00:00 18.7 3 Oeste 12 Sudoeste 2.8 -- -- 91
2019-07-14 08:00:00 18.9 3 Sur 22 Sur 1.6 -- -- 91
2019-07-14 07:00:00 19.1 9 Nordeste 46 Norte 1 -- -- 90
2019-07-14 06:00:00 19.1 16 Norte 35 Norte 1.4 -- -- 88
2019-07-14 05:00:00 19.5 5 Oeste 22 Oeste 0 -- -- 85
2019-07-14 04:00:00 20 4 Sudoeste 16 Sudoeste 0 -- -- 84
2019-07-14 03:00:00 20.6 6 Noroeste 28 Norte 0.2 -- -- 84
2019-07-14 02:00:00 21.7 6 Oeste 21 Noroeste 0 -- -- 78
2019-07-14 01:00:00 22.5 5 Oeste 25 Noroeste 0 -- -- 77
2019-07-14 00:00:00 23.4 3 Oeste 9 Oeste 0.4 -- -- 76
2019-07-13 23:00:00 24.9 0 Calma 7 Sudoeste 0 -- -- 66
2019-07-13 22:00:00 27 8 Sur 21 Sur 0 -- -- 56
2019-07-13 21:00:00 29.7 3 Sur 10 Noroeste 0 -- -- 48
2019-07-13 20:00:00 31.3 7 Sudoeste 19 Sudoeste 0 -- -- 41
2019-07-13 19:00:00 33.2 6 Sudoeste 14 Sudoeste 0 -- -- 37
2019-07-13 18:00:00 35.1 6 Norte 20 Noroeste 0 -- -- 29
2019-07-13 17:00:00 33.8 5 Oeste 21 Noroeste 0 -- -- 32
2019-07-13 16:00:00 33.8 4 Oeste 15 Noroeste 0 -- -- 36
2019-07-13 15:00:00 31.9 4 Norte 15 Sudoeste 0 -- -- 36
2019-07-13 14:00:00 30.5 4 Sudoeste 15 Sudoeste 0 -- -- 46
2019-07-13 13:00:00 29.2 2 Sur 27 Norte 0 -- -- 47
2019-07-13 12:00:00 26.8 13 Norte 26 Norte 0 -- -- 45
2019-07-13 11:00:00 25.2 3 Oeste 12 Noroeste 0 -- -- 50
2019-07-13 10:00:00 23.2 3 Oeste 12 Oeste 0 -- -- 56
2019-07-13 09:00:00 20.3 4 Oeste 14 Oeste 0 -- -- 61
2019-07-13 08:00:00 18.9 4 Sudoeste 11 Sudoeste 0 -- -- 65
2019-07-13 07:00:00 18.7 3 Sudoeste 12 Sudoeste 0 -- -- 65
2019-07-13 06:00:00 19.1 5 Sudoeste 10 Sudoeste 0 -- -- 70
2019-07-13 05:00:00 20.1 3 Oeste 8 Oeste 0 -- -- 64
2019-07-13 04:00:00 20.8 2 Sudoeste 18 Noroeste 0 -- -- 69
2019-07-13 03:00:00 21.8 2 Este 22 Norte 0 -- -- 70
2019-07-13 02:00:00 23.2 6 Oeste 19 Noroeste 0 -- -- 68
2019-07-13 01:00:00 24.9 4 Oeste 11 Sur 0 -- -- 58
2019-07-13 00:00:00 25.8 4 Oeste 10 Noroeste 0 -- -- 45
2019-07-12 23:00:00 27.5 2 Sudeste 10 Noroeste 0 -- -- 45
2019-07-12 22:00:00 30 3 Sudoeste 10 Noroeste 0 -- -- 41
2019-07-12 21:00:00 32.8 2 Sudoeste 14 Norte 0 -- -- 34
2019-07-12 20:00:00 35 5 Norte 21 Norte 0 -- -- 31
2019-07-12 19:00:00 36.5 11 Norte 23 Noroeste 0 -- -- 25
2019-07-12 18:00:00 36.7 4 Norte 18 Norte 0 -- -- 27
2019-07-12 17:00:00 36.7 3 Oeste 22 Norte 0 -- -- 26
2019-07-12 16:00:00 36.6 4 Noroeste 16 Sur 0 -- -- 28
2019-07-12 15:00:00 35.7 3 Sudoeste 11 Norte 0 -- -- 37
2019-07-12 14:00:00 34.5 4 Norte 10 Oeste 0 -- -- 31
2019-07-12 13:00:00 32.4 3 Sudoeste 12 Sudoeste 0 -- -- 38
2019-07-12 12:00:00 29.9 3 Oeste 9 Oeste 0 -- -- 44
2019-07-12 11:00:00 27 2 Oeste 11 Sudoeste 0 -- -- 52
2019-07-12 10:00:00 23.6 3 Sudoeste 8 Oeste 0 -- -- 63
2019-07-12 09:00:00 19.9 3 Oeste 9 Oeste 0 -- -- 72
2019-07-12 08:00:00 18.1 0 Calma 5 Sur 0 -- -- 78
2019-07-12 07:00:00 17.8 0 Calma 6 Noroeste 0 -- -- 80
2019-07-12 06:00:00 18.4 0 Calma 5 Sudoeste 0 -- -- 77
2019-07-12 05:00:00 19.1 0 Calma 4 Noroeste 0 -- -- 74
2019-07-12 04:00:00 20.2 2 Sudoeste 6 Sudoeste 0 -- -- 71
2019-07-12 03:00:00 20.6 0 Calma 6 Noroeste 0 -- -- 66
2019-07-12 02:00:00 21.7 2 Sudoeste 9 Noroeste 0 -- -- 58
2019-07-12 01:00:00 23.3 2 Sudoeste 7 Oeste 0 -- -- 48
2019-07-12 00:00:00 24.5 2 Sudoeste 9 Oeste 0 -- -- 49
2019-07-11 23:00:00 26.3 0 Calma 6 Oeste 0 -- -- 46
2019-07-11 22:00:00 29.2 0 Calma 13 Norte 0 -- -- 38
2019-07-11 21:00:00 32 6 Norte 18 Norte 0 -- -- 30
2019-07-11 20:00:00 33.7 8 Norte 21 Norte 0 -- -- 26
2019-07-11 19:00:00 34.5 8 Norte 25 Norte 0 -- -- 25
2019-07-11 18:00:00 35.8 8 Norte 19 Norte 0 -- -- 24
2019-07-11 17:00:00 35.7 7 Norte 23 Noroeste 0 -- -- 25
2019-07-11 16:00:00 35.1 9 Norte 24 Norte 0 -- -- 29
2019-07-11 15:00:00 33.8 5 Oeste 17 Sudoeste 0 -- -- 29
2019-07-11 14:00:00 32.2 6 Sudoeste 19 Sudoeste 0 -- -- 31
2019-07-11 13:00:00 30.6 3 Oeste 12 Sur 0 -- -- 41
2019-07-11 12:00:00 28.3 4 Norte 12 Sudoeste 0 -- -- 47
2019-07-11 11:00:00 25.7 3 Oeste 13 Sudoeste 0 -- -- 58
2019-07-11 10:00:00 22.5 2 Oeste 8 Sudoeste 0 -- -- 69
2019-07-11 09:00:00 18.9 3 Oeste 6 Noroeste 0 -- -- 81
2019-07-11 08:00:00 17.1 0 Calma 4 Noroeste 0 -- -- 87
2019-07-11 07:00:00 16.7 0 Calma 4 Sur 0 -- -- 88
2019-07-11 06:00:00 17.4 0 Calma 7 Norte 0 -- -- 86
2019-07-11 05:00:00 18.2 3 Norte 10 Noroeste 0 -- -- 81
2019-07-11 04:00:00 18.5 0 Calma 5 Noroeste 0 -- -- 82
2019-07-11 03:00:00 18.8 0 Calma 6 Sur 0 -- -- 82
2019-07-11 02:00:00 20.1 0 Calma 6 Noroeste 0 -- -- 77
2019-07-11 01:00:00 21.3 0 Calma 6 Noroeste 0 -- -- 72
2019-07-11 00:00:00 22.9 2 Oeste 6 Sudoeste 0 -- -- 67
2019-07-10 23:00:00 24.6 0 Calma 8 Norte 0 -- -- 63
2019-07-10 22:00:00 26.9 3 Norte 10 Norte 0 -- -- 54
2019-07-10 21:00:00 29.1 3 Sur 14 Oeste 0 -- -- 44
2019-07-10 20:00:00 30.4 4 Oeste 14 Noroeste 0 -- -- 37
2019-07-10 19:00:00 31 3 Oeste 16 Norte 0 -- -- 37
2019-07-10 18:00:00 32 8 Norte 17 Norte 0 -- -- 34
2019-07-10 17:00:00 32 4 Sudoeste 16 Oeste 0 -- -- 34
2019-07-10 16:00:00 31.5 5 Noroeste 15 Norte 0 -- -- 37
2019-07-10 15:00:00 30.2 4 Oeste 15 Sur 0 -- -- 37
2019-07-10 14:00:00 28.8 6 Sudoeste 14 Sudoeste 0 -- -- 43
2019-07-10 13:00:00 27.3 4 Oeste 18 Sudoeste 0 -- -- 44
2019-07-10 12:00:00 25.8 4 Oeste 14 Noroeste 0 -- -- 49
2019-07-10 11:00:00 23.5 5 Sudoeste 19 Sudoeste 0 -- -- 50
2019-07-10 10:00:00 21.2 4 Oeste 13 Noroeste 0 -- -- 55
2019-07-10 09:00:00 17.9 4 Oeste 13 Oeste 0 -- -- 66
2019-07-10 08:00:00 15.7 0 Calma 7 Oeste 0 -- -- 75
2019-07-10 07:00:00 15.4 3 Norte 13 Norte 0 -- -- 75
2019-07-10 06:00:00 15.7 3 Sudoeste 12 Sudoeste 0 -- -- 73
2019-07-10 05:00:00 16.1 4 Oeste 14 Oeste 0 -- -- 73
2019-07-10 04:00:00 16.3 4 Oeste 19 Noroeste 0 -- -- 73
2019-07-10 03:00:00 16.8 4 Oeste 18 Noroeste 0 -- -- 72
2019-07-10 02:00:00 17.2 5 Oeste 21 Oeste 0 -- -- 69
2019-07-10 01:00:00 17.8 5 Oeste 17 Oeste 0 -- -- 67
2019-07-10 00:00:00 18.5 4 Oeste 18 Noroeste 0 -- -- 62
2019-07-09 23:00:00 19.4 5 Oeste 19 Oeste 0 -- -- 57
2019-07-09 22:00:00 20.6 4 Oeste 19 Oeste 0 -- -- 54
2019-07-09 21:00:00 22.3 6 Oeste 23 Oeste 0 -- -- 50
2019-07-09 20:00:00 23.8 5 Noroeste 26 Norte 0 -- -- 48
2019-07-09 19:00:00 25 5 Noroeste 27 Noroeste 0 -- -- 48
2019-07-09 18:00:00 26.4 6 Noroeste 25 Noroeste 0 -- -- 47
2019-07-09 17:00:00 25.7 7 Oeste 30 Oeste 0 -- -- 53
2019-07-09 16:00:00 24.4 8 Oeste 30 Oeste 0 -- -- 59
2019-07-09 15:00:00 24.5 6 Oeste 23 Noroeste 0 -- -- 58
2019-07-09 14:00:00 25.2 7 Oeste 23 Noroeste 0 -- -- 57
2019-07-09 13:00:00 25.9 6 Oeste 20 Noroeste 0 -- -- 56
2019-07-09 12:00:00 24.5 5 Oeste 23 Oeste 0 -- -- 62
2019-07-09 11:00:00 23.1 6 Oeste 19 Oeste 0 -- -- 68
2019-07-09 10:00:00 20.3 5 Oeste 17 Oeste 0 -- -- 78
2019-07-09 09:00:00 18.1 3 Oeste 13 Noroeste 0 -- -- 86
2019-07-09 08:00:00 17.3 3 Oeste 13 Noroeste 0 -- -- 87
2019-07-09 07:00:00 17.3 2 Oeste 9 Oeste 0 -- -- 86
2019-07-09 06:00:00 17.4 2 Oeste 7 Oeste 0 -- -- 87
2019-07-09 05:00:00 17.5 4 Sudoeste 10 Sudoeste 0 -- -- 89
2019-07-09 04:00:00 17.7 3 Norte 8 Noroeste 0 -- -- 88
2019-07-09 03:00:00 17.7 4 Sudoeste 14 Noroeste 0 -- -- 87
2019-07-09 02:00:00 18 2 Oeste 11 Sudoeste 0 -- -- 85
2019-07-09 01:00:00 18.2 3 Sur 11 Nordeste 0 -- -- 89
2019-07-09 00:00:00 18.5 4 Nordeste 17 Norte 0.2 -- -- 85
2019-07-08 23:00:00 18.3 11 Norte 37 Noroeste 0.6 -- -- 82
2019-07-08 22:00:00 18.5 11 Norte 32 Norte 5.6 -- -- 82
2019-07-08 21:00:00 21.5 8 Oeste 31 Sudoeste 0.4 -- -- 77
2019-07-08 20:00:00 26.7 4 Norte 16 Este 0 -- -- 53
2019-07-08 19:00:00 27.8 6 Este 22 Nordeste 0 -- -- 47
2019-07-08 18:00:00 28.3 6 Este 32 Sudeste 0 -- -- 50
2019-07-08 17:00:00 29.6 7 Este 31 Sudeste 0 -- -- 49
2019-07-08 16:00:00 28.5 5 Este 16 Nordeste 0 -- -- 52
2019-07-08 15:00:00 28.6 3 Sudoeste 11 Sudoeste 0 -- -- 55
2019-07-08 14:00:00 30.5 2 Sudoeste 10 Sudoeste 0 -- -- 49
2019-07-08 13:00:00 30.4 4 Sudoeste 14 Sudoeste 0 -- -- 48
2019-07-08 12:00:00 29.2 4 Sudoeste 12 Sudoeste 0 -- -- 53
2019-07-08 11:00:00 26.1 2 Oeste 8 Sudoeste 0 -- -- 62
2019-07-08 10:00:00 23.3 2 Sudoeste 7 Noroeste 0 -- -- 70
2019-07-08 09:00:00 21.3 2 Oeste 9 Noroeste 0 -- -- 74
2019-07-08 08:00:00 20 0 Calma 4 Oeste 0 -- -- 80
2019-07-08 07:00:00 19.8 3 Sudoeste 8 Sudoeste 0 -- -- 78
2019-07-08 06:00:00 20.4 0 Calma 12 Norte 0 -- -- 78
2019-07-08 05:00:00 20.9 3 Noroeste 10 Noroeste 0 -- -- 69
2019-07-08 04:00:00 21.4 3 Oeste 15 Noroeste 0 -- -- 67
2019-07-08 03:00:00 21.9 2 Oeste 11 Noroeste 0 -- -- 68
2019-07-08 02:00:00 24.6 2 Sur 8 Sudeste 0 -- -- 56
2019-07-08 01:00:00 25.4 4 Nordeste 11 Este 0 -- -- 55
2019-07-08 00:00:00 27 3 Este 13 Este 0 -- -- 52
2019-07-07 23:00:00 29.6 0 Calma 19 Sudoeste 0 -- -- 46
2019-07-07 22:00:00 31.4 4 Sur 14 Sudeste 0 -- -- 32
2019-07-07 21:00:00 31.8 3 Sudeste 9 Nordeste 0 -- -- 30
2019-07-07 20:00:00 33.4 0 Calma 8 Nordeste 0 -- -- 33
2019-07-07 19:00:00 34.9 0 Calma 14 Norte 0 -- -- 30
2019-07-07 18:00:00 36 2 Nordeste 14 Norte 0 -- -- 22
2019-07-07 17:00:00 36 4 Noroeste 17 Norte 0 -- -- 22
2019-07-07 16:00:00 34.9 7 Norte 16 Norte 0 -- -- 27
2019-07-07 15:00:00 32.5 3 Oeste 11 Sur 0 -- -- 41
2019-07-07 14:00:00 31.2 4 Sudoeste 14 Sudoeste 0 -- -- 44
2019-07-07 13:00:00 29.4 5 Sudoeste 16 Sudoeste 0 -- -- 49
2019-07-07 12:00:00 27.5 4 Sudoeste 12 Sudoeste 0 -- -- 55
2019-07-07 11:00:00 25.8 4 Oeste 15 Sur 0 -- -- 60
2019-07-07 10:00:00 24 3 Oeste 12 Norte 0 -- -- 65
2019-07-07 09:00:00 21.2 3 Oeste 15 Noroeste 0 -- -- 75
2019-07-07 08:00:00 19.7 5 Oeste 15 Noroeste 0 -- -- 79
2019-07-07 07:00:00 19.1 2 Norte 9 Oeste 0 -- -- 81
2019-07-07 06:00:00 19.6 3 Oeste 11 Noroeste 0 -- -- 77
2019-07-07 05:00:00 20.1 4 Sudoeste 10 Oeste 0 -- -- 74
2019-07-07 04:00:00 20.8 3 Sudoeste 13 Noroeste 0 -- -- 75
2019-07-07 03:00:00 21.2 3 Oeste 12 Oeste 0 -- -- 74
2019-07-07 02:00:00 21.9 4 Sudoeste 12 Sudoeste 0 -- -- 71
2019-07-07 01:00:00 23.5 3 Oeste 12 Oeste 0 -- -- 63
2019-07-07 00:00:00 26.3 3 Noroeste 13 Noroeste 0 -- -- 54
2019-07-06 23:00:00 29.6 3 Sudoeste 10 Sudoeste 0 -- -- 41
2019-07-06 22:00:00 33.1 6 Sudoeste 24 Sudoeste 0 -- -- 19
2019-07-06 21:00:00 34.2 4 Sur 24 Sudoeste 0 -- -- 20
2019-07-06 20:00:00 36.2 9 Sudoeste 27 Sudoeste 0 -- -- 17
2019-07-06 19:00:00 36.9 9 Sudoeste 20 Sudoeste 0 -- -- 21
2019-07-06 18:00:00 37.8 4 Sur 15 Sudeste 0 -- -- 20
2019-07-06 17:00:00 38.1 7 Sudoeste 21 Sudoeste 0 -- -- 18
2019-07-06 16:00:00 37.3 5 Sudeste 13 Sudoeste 0 -- -- 21
2019-07-06 15:00:00 35.7 3 Sur 16 Sudoeste 0 -- -- 35
2019-07-06 14:00:00 34.3 5 Sudoeste 12 Sur 0 -- -- 30
2019-07-06 13:00:00 32.5 3 Sudoeste 13 Sudoeste 0 -- -- 42
2019-07-06 12:00:00 30.8 4 Sudoeste 12 Sudoeste 0 -- -- 47
2019-07-06 11:00:00 29.4 3 Sudoeste 8 Sudoeste 0 -- -- 51
2019-07-06 10:00:00 27.5 3 Sudoeste 6 Sudoeste 0 -- -- 53
2019-07-06 09:00:00 24 3 Este 6 Norte 0 -- -- 62
2019-07-06 08:00:00 21.5 2 Nordeste 5 Nordeste 0 -- -- 70
2019-07-06 07:00:00 21.1 0 Calma 8 Nordeste 0 -- -- 70
2019-07-06 06:00:00 22.2 2 Este 12 Este 0 -- -- 63
2019-07-06 05:00:00 23 4 Nordeste 17 Nordeste 0 -- -- 60
2019-07-06 04:00:00 23.6 3 Nordeste 13 Este 0 -- -- 59
2019-07-06 03:00:00 24.4 5 Nordeste 21 Nordeste 0 -- -- 57
2019-07-06 02:00:00 26 4 Nordeste 18 Nordeste 0 -- -- 52
2019-07-06 01:00:00 26.9 5 Nordeste 12 Nordeste 0 -- -- 48
2019-07-06 00:00:00 27.9 2 Nordeste 8 Nordeste 0 -- -- 47
2019-07-05 23:00:00 30.8 0 Calma 13 Este 0 -- -- 38
2019-07-05 22:00:00 32.4 6 Sudeste 18 Sudeste 0 -- -- 33
2019-07-05 21:00:00 33.5 2 Nordeste 10 Nordeste 0 -- -- 36
2019-07-05 20:00:00 34.9 4 Nordeste 9 Sudeste 0 -- -- 29
2019-07-05 19:00:00 35.9 3 Sudeste 10 Oeste 0 -- -- 25
2019-07-05 18:00:00 37 4 Sudeste 14 Sudoeste 0 -- -- 25
2019-07-05 17:00:00 37.1 3 Norte 17 Sudoeste 0 -- -- 26
2019-07-05 16:00:00 36.4 7 Sur 19 Sudoeste 0 -- -- 28
2019-07-05 15:00:00 35.8 4 Sudeste 14 Sudoeste 0 -- -- 28
2019-07-05 14:00:00 34.5 5 Sur 18 Nordeste 0 -- -- 32
2019-07-05 13:00:00 33.5 5 Este 20 Nordeste 0 -- -- 36
2019-07-05 12:00:00 31.7 6 Nordeste 14 Este 0 -- -- 39
2019-07-05 11:00:00 29.4 5 Este 21 Nordeste 0 -- -- 42
2019-07-05 10:00:00 26.9 5 Este 17 Este 0 -- -- 49
2019-07-05 09:00:00 23.9 5 Nordeste 15 Nordeste 0 -- -- 59
2019-07-05 08:00:00 21.5 4 Nordeste 13 Este 0 -- -- 66
2019-07-05 07:00:00 20.9 4 Nordeste 9 Nordeste 0 -- -- 67
2019-07-05 06:00:00 21.7 5 Nordeste 13 Nordeste 0 -- -- 62
2019-07-05 05:00:00 22.1 4 Este 21 Nordeste 0 -- -- 61
2019-07-05 04:00:00 22.9 5 Este 22 Nordeste 0 -- -- 57
2019-07-05 03:00:00 23.9 7 Este 25 Nordeste 0 -- -- 54
2019-07-05 02:00:00 23.9 6 Este 26 Este 0 -- -- 53
2019-07-05 01:00:00 24.7 6 Este 21 Nordeste 0 -- -- 48
2019-07-05 00:00:00 26.4 4 Este 15 Nordeste 0 -- -- 41
2019-07-04 23:00:00 27.8 4 Nordeste 12 Nordeste -- -- -- 37
2019-07-04 22:00:00 30.1 3 Este 15 Este 0 -- -- 34
2019-07-04 21:00:00 32.4 5 Este 22 Sur 0 -- -- 31
2019-07-04 20:00:00 33.3 7 Este 26 Nordeste 0 -- -- 32
2019-07-04 19:00:00 34.5 8 Este 27 Este 0 -- -- 29
2019-07-04 18:00:00 35.3 7 Este 25 Nordeste 0 -- -- 28
2019-07-04 17:00:00 35.5 6 Este 19 Este 0 -- -- 29
2019-07-04 16:00:00 35.1 8 Este 22 Nordeste 0 -- -- 29
2019-07-04 15:00:00 34.7 6 Este 27 Nordeste 0 -- -- 33
2019-07-04 14:00:00 34 7 Este 27 Norte 0 -- -- 32
2019-07-04 13:00:00 33.1 6 Este 25 Nordeste 0 -- -- 36
2019-07-04 12:00:00 31.9 6 Este 22 Nordeste 0 -- -- 35
2019-07-04 11:00:00 29.7 4 Sur 15 Sudeste 0 -- -- 43
2019-07-04 10:00:00 27.4 3 Sudoeste 9 Sudeste 0 -- -- 47
2019-07-04 09:00:00 23.5 2 Nordeste 6 Este 0 -- -- 56
2019-07-04 08:00:00 21.7 4 Nordeste 14 Este 0 -- -- 60
2019-07-04 07:00:00 21 3 Nordeste 10 Este 0 -- -- 60
2019-07-04 06:00:00 21.3 4 Nordeste 13 Nordeste 0 -- -- 60
2019-07-04 05:00:00 21.3 3 Nordeste 13 Nordeste 0 -- -- 60
2019-07-04 04:00:00 21.9 4 Nordeste 13 Nordeste 0 -- -- 58
2019-07-04 03:00:00 23.2 4 Nordeste 14 Nordeste 0 -- -- 53
2019-07-04 02:00:00 24.4 2 Nordeste 12 Nordeste 0 -- -- 51
2019-07-04 01:00:00 25.5 3 Nordeste 13 Este 0 -- -- 49
2019-07-04 00:00:00 26.3 5 Este 21 Este 0 -- -- 45
2019-07-03 23:00:00 27.6 6 Este 31 Nordeste 0 -- -- 42
2019-07-03 22:00:00 29.8 7 Nordeste 23 Sudeste 0 -- -- 38
2019-07-03 21:00:00 31.8 4 Nordeste 15 Nordeste 0 -- -- 32
2019-07-03 20:00:00 33.3 4 Nordeste 11 Este 0 -- -- 32
2019-07-03 19:00:00 34.3 3 Nordeste 17 Nordeste 0 -- -- 31
2019-07-03 18:00:00 36.2 5 Nordeste 21 Sudoeste 0 -- -- 29
2019-07-03 17:00:00 36.6 5 Sudoeste 16 Sudoeste 0 -- -- 27
2019-07-03 16:00:00 35.8 7 Sur 24 Oeste 0 -- -- 28
2019-07-03 15:00:00 34.8 7 Sur 21 Sudoeste 0 -- -- 29
2019-07-03 14:00:00 32.9 3 Sudoeste 14 Sudoeste 0 -- -- 39
2019-07-03 13:00:00 31.8 5 Sudoeste 14 Sudoeste 0 -- -- 41
2019-07-03 12:00:00 30.1 4 Sudoeste 16 Sudoeste 0 -- -- 47
2019-07-03 11:00:00 28.7 4 Este 15 Nordeste 0 -- -- 51
2019-07-03 10:00:00 25.1 3 Nordeste 10 Nordeste 0 -- -- 59
2019-07-03 09:00:00 21 0 Calma 8 Noroeste 0 -- -- 75
2019-07-03 08:00:00 19.4 4 Norte 11 Nordeste 0 -- -- 78
2019-07-03 07:00:00 19 4 Noroeste 9 Noroeste 0 -- -- 80
2019-07-03 06:00:00 18.9 0 Calma 8 Norte 0 -- -- 80
2019-07-03 05:00:00 19.4 0 Calma 8 Noroeste 0 -- -- 79
2019-07-03 04:00:00 20 2 Sur 6 Sur 0 -- -- 77
2019-07-03 03:00:00 21 2 Oeste 7 Oeste 0 -- -- 72
2019-07-03 02:00:00 22.1 0 Calma 8 Norte 0 -- -- 70
2019-07-03 01:00:00 23.3 3 Oeste 10 Noroeste 0 -- -- 65
2019-07-03 00:00:00 25.1 2 Oeste 10 Sudoeste 0 -- -- 60
2019-07-02 23:00:00 27.5 0 Calma 11 Noroeste 0 -- -- 49
2019-07-02 22:00:00 29 4 Norte 9 Nordeste 0 -- -- 42
2019-07-02 21:00:00 30.6 0 Calma 9 Oeste 0 -- -- 44
2019-07-02 20:00:00 31.7 3 Sur 8 Sudoeste 0 -- -- 40
2019-07-02 19:00:00 32.5 3 Sudoeste 13 Sudoeste 0 -- -- 36
2019-07-02 18:00:00 33.4 3 Sudoeste 15 Sudoeste 0 -- -- 38
2019-07-02 17:00:00 33.5 4 Oeste 18 Sudoeste 0 -- -- 34
2019-07-02 16:00:00 32.6 5 Sur 17 Sudoeste 0 -- -- 38
2019-07-02 15:00:00 31.6 8 Sudoeste 17 Sudoeste 0 -- -- 41
2019-07-02 14:00:00 30.4 4 Sur 12 Sudoeste 0 -- -- 44
2019-07-02 13:00:00 28.4 3 Sur 9 Sudeste 0 -- -- 48
2019-07-02 12:00:00 26 4 Noroeste 9 Sudoeste 0 -- -- 55
2019-07-02 11:00:00 23.5 4 Sudoeste 12 Sudoeste 0 -- -- 61
2019-07-02 10:00:00 21 2 Sudoeste 11 Oeste 0 -- -- 70
2019-07-02 09:00:00 19.3 3 Oeste 12 Noroeste 0 -- -- 76
2019-07-02 08:00:00 17.9 2 Oeste 8 Sudoeste 0 -- -- 80
2019-07-02 07:00:00 17.1 3 Oeste 9 Oeste 0 -- -- 83
2019-07-02 06:00:00 17 3 Oeste 10 Oeste 0 -- -- 82
2019-07-02 05:00:00 17.2 2 Oeste 10 Oeste 0 -- -- 81
2019-07-02 04:00:00 17.7 2 Sudoeste 9 Oeste 0 -- -- 79
2019-07-02 03:00:00 18.1 3 Sudoeste 13 Oeste 0 -- -- 78
2019-07-02 02:00:00 19.2 4 Oeste 15 Sudoeste 0 -- -- 74
2019-07-02 01:00:00 20.5 6 Sudoeste 16 Norte 0 -- -- 70
2019-07-02 00:00:00 21.4 2 Sudeste 12 Norte 0 -- -- 66
2019-07-01 23:00:00 21.5 4 Norte 21 Norte 0 -- -- 65
2019-07-01 22:00:00 22.7 8 Norte 29 Noroeste 0 -- -- 59
2019-07-01 21:00:00 23.8 9 Oeste 25 Oeste 0 -- -- 53
2019-07-01 20:00:00 25.6 7 Oeste 27 Oeste 0 -- -- 50
2019-07-01 19:00:00 28.8 8 Oeste 26 Noroeste 0 -- -- 44
2019-07-01 18:00:00 32.2 5 Oeste 21 Noroeste 0 -- -- 39
2019-07-01 17:00:00 34.5 3 Oeste 12 Sudoeste 0 -- -- 32
2019-07-01 16:00:00 33.8 4 Noroeste 15 Sudoeste 0 -- -- 34
2019-07-01 15:00:00 32.3 4 Sudoeste 17 Sudoeste 0 -- -- 38
2019-07-01 14:00:00 30.5 7 Sudoeste 18 Sudoeste 0 -- -- 41
2019-07-01 13:00:00 29.4 3 Sudoeste 13 Noroeste 0 -- -- 43
2019-07-01 12:00:00 26.6 3 Oeste 12 Noroeste 0 -- -- 50
2019-07-01 11:00:00 25.2 3 Oeste 13 Noroeste 0 -- -- 56
2019-07-01 10:00:00 23.4 3 Oeste 12 Noroeste 0 -- -- 61
2019-07-01 09:00:00 20.6 4 Oeste 14 Noroeste 0 -- -- 69
2019-07-01 08:00:00 18.8 3 Oeste 9 Oeste 0 -- -- 75
2019-07-01 07:00:00 18.4 3 Oeste 11 Noroeste 0 -- -- 75
2019-07-01 06:00:00 19 3 Oeste 13 Oeste 0 -- -- 73
2019-07-01 05:00:00 20.2 5 Oeste 16 Noroeste 0 -- -- 67
2019-07-01 04:00:00 24.9 4 Oeste 12 Sudoeste 0 -- -- 48
2019-07-01 03:00:00 25.8 5 Este 24 Nordeste 0 -- -- 44
2019-07-01 02:00:00 26 7 Este 25 Nordeste 0 -- -- 42
2019-07-01 01:00:00 26.7 6 Este 23 Nordeste 0 -- -- 41
2019-07-01 00:00:00 28.4 6 Nordeste 19 Nordeste 0 -- -- 36
2019-06-30 23:00:00 29.9 4 Nordeste 16 Norte 0 -- -- 35
2019-06-30 22:00:00 32.6 5 Nordeste 19 Este 0 -- -- 27
2019-06-30 21:00:00 34.7 5 Nordeste 19 Este 0 -- -- 23
2019-06-30 20:00:00 37.1 6 Este 24 Este 0 -- -- 22
2019-06-30 19:00:00 38.5 7 Este 28 Este 0 -- -- 20
2019-06-30 18:00:00 39.6 8 Nordeste 25 Este 0 -- -- 21
2019-06-30 17:00:00 40.3 6 Este 19 Nordeste 0 -- -- 19
2019-06-30 16:00:00 39.9 7 Nordeste 28 Norte 0 -- -- 18
2019-06-30 15:00:00 39.3 5 Este 19 Nordeste 0 -- -- 20
2019-06-30 14:00:00 37.8 6 Nordeste 20 Nordeste 0 -- -- 24
2019-06-30 13:00:00 36.2 5 Este 17 Este 0 -- -- 30
2019-06-30 12:00:00 33.6 5 Nordeste 16 Nordeste 0 -- -- 30
2019-06-30 11:00:00 28.6 3 Sudoeste 9 Sudoeste 0 -- -- 50
2019-06-30 10:00:00 24.5 0 Calma 5 Sudoeste 0 -- -- 63
2019-06-30 09:00:00 20.3 2 Sudoeste 6 Sudoeste 0 -- -- 70
2019-06-30 08:00:00 18.4 0 Calma 8 Sur 0 -- -- 75
2019-06-30 07:00:00 18.7 0 Calma 11 Oeste 0 -- -- 73
2019-06-30 06:00:00 19.7 2 Sudoeste 7 Sudoeste 0 -- -- 66
2019-06-30 05:00:00 22.8 0 Calma 13 Sudoeste 0 -- -- 54
2019-06-30 04:00:00 25.6 4 Sudoeste 17 Sudeste 0 -- -- 35
2019-06-30 03:00:00 26.7 5 Este 17 Este 0 -- -- 33
2019-06-30 02:00:00 27.9 6 Nordeste 23 Sudeste 0 -- -- 30
2019-06-30 01:00:00 27.3 4 Nordeste 10 Este 0 -- -- 30
2019-06-30 00:00:00 26.5 0 Calma 6 Este 0 -- -- 37
2019-06-29 23:00:00 29.9 2 Nordeste 9 Nordeste 0 -- -- 29
2019-06-29 22:00:00 33.8 4 Nordeste 12 Este 0 -- -- 22
2019-06-29 21:00:00 37.1 4 Nordeste 13 Nordeste 0 -- -- 19
2019-06-29 20:00:00 38.9 4 Nordeste 18 Norte 0 -- -- 17
2019-06-29 19:00:00 40.1 3 Norte 14 Nordeste 0 -- -- 13
2019-06-29 18:00:00 41.7 4 Sudeste 21 Sudoeste 0 -- -- 15
2019-06-29 17:00:00 42.1 3 Sudeste 28 Sudoeste 0 -- -- 13
2019-06-29 16:00:00 41.4 6 Sur 17 Sudoeste 0 -- -- 17
2019-06-29 15:00:00 40.5 8 Sudoeste 20 Sudoeste 0 -- -- 15
2019-06-29 14:00:00 39.7 5 Sudoeste 15 Sudoeste 0 -- -- 19
2019-06-29 13:00:00 37.8 2 Sudoeste 12 Sudoeste 0 -- -- 30
2019-06-29 12:00:00 35.6 4 Sudoeste 11 Sudoeste 0 -- -- 27
2019-06-29 11:00:00 33.1 4 Sudoeste 8 Sudoeste 0 -- -- 30
2019-06-29 10:00:00 28.4 0 Calma 5 Sudoeste 0 -- -- 45
2019-06-29 09:00:00 22.6 0 Calma 5 Nordeste 0 -- -- 58
2019-06-29 08:00:00 20.1 0 Calma 5 Nordeste 0 -- -- 56
2019-06-29 07:00:00 20.3 0 Calma 11 Nordeste 0 -- -- 51
2019-06-29 06:00:00 21.9 4 Nordeste 14 Nordeste 0 -- -- 39
2019-06-29 05:00:00 22.6 5 Nordeste 13 Nordeste 0 -- -- 37
2019-06-29 04:00:00 23.5 6 Nordeste 15 Nordeste 0 -- -- 34
2019-06-29 03:00:00 22 3 Nordeste 8 Este 0 -- -- 45
2019-06-29 02:00:00 23.3 2 Nordeste 5 Nordeste 0 -- -- 43
2019-06-29 01:00:00 24.4 3 Nordeste 7 Norte 0 -- -- 40
2019-06-29 00:00:00 25.6 0 Calma 9 Nordeste 0 -- -- 43
2019-06-28 23:00:00 28.1 4 Nordeste 8 Nordeste 0 -- -- 35
2019-06-28 22:00:00 31 0 Calma 3 Norte 0 -- -- 36
2019-06-28 21:00:00 34.3 0 Calma 6 Sur 0 -- -- 34
2019-06-28 20:00:00 37.1 0 Calma 5 Sur 0 -- -- 25
2019-06-28 19:00:00 39.2 2 Sudoeste 10 Sudoeste 0 -- -- 27
2019-06-28 18:00:00 40.9 5 Sudoeste 18 Sudoeste 0 -- -- 19
2019-06-28 17:00:00 41.5 8 Sudoeste 15 Sudoeste 0 -- -- 18
2019-06-28 16:00:00 41.1 3 Oeste 10 Sudoeste 0 -- -- 22
2019-06-28 15:00:00 40 5 Sudoeste 11 Sudoeste 0 -- -- 29
2019-06-28 14:00:00 39.1 3 Norte 8 Noroeste 0 -- -- 26
2019-06-28 13:00:00 37.1 3 Sudeste 8 Noroeste 0 -- -- 27
2019-06-28 12:00:00 34.7 2 Sudoeste 5 Sudoeste 0 -- -- 32
2019-06-28 11:00:00 31.4 2 Sudeste 5 Sudoeste 0 -- -- 36
2019-06-28 10:00:00 27.7 0 Calma 6 Este 0 -- -- 47
2019-06-28 09:00:00 22.4 2 Nordeste 6 Norte 0 -- -- 60
2019-06-28 08:00:00 19.8 0 Calma 3 Nordeste 0 -- -- 69
2019-06-28 07:00:00 19.2 2 Nordeste 5 Este 0 -- -- 64
2019-06-28 06:00:00 19.7 0 Calma 5 Nordeste 0 -- -- 64
2019-06-28 05:00:00 21.4 0 Calma 5 Norte 0 -- -- 58
2019-06-28 04:00:00 23.2 0 Calma 8 Sudeste 0 -- -- 52
2019-06-28 03:00:00 25 2 Sur 17 Este 0 -- -- 44
2019-06-28 02:00:00 25.3 7 Nordeste 22 Nordeste 0 -- -- 42
2019-06-28 01:00:00 26.9 8 Nordeste 24 Este 0 -- -- 39
2019-06-28 00:00:00 28.2 8 Este 24 Nordeste 0 -- -- 35
2019-06-27 23:00:00 29.6 6 Este 23 Este 0 -- -- 34
2019-06-27 22:00:00 32.4 6 Nordeste 21 Nordeste 0 -- -- 29
2019-06-27 21:00:00 34.9 7 Este 22 Este 0 -- -- 26
2019-06-27 20:00:00 36.4 8 Este 28 Este 0 -- -- 25
2019-06-27 19:00:00 37 9 Este 36 Este 0 -- -- 25
2019-06-27 18:00:00 37.9 10 Este 31 Norte 0 -- -- 26
2019-06-27 17:00:00 38 7 Este 35 Nordeste 0 -- -- 24
2019-06-27 16:00:00 39.3 12 Este 42 Nordeste 0 -- -- 22
2019-06-27 15:00:00 37.7 10 Nordeste 34 Este 0 -- -- 20
2019-06-27 14:00:00 37.2 8 Nordeste 31 Sur 0 -- -- 22
2019-06-27 13:00:00 35.3 8 Este 26 Nordeste 0 -- -- 25
2019-06-27 12:00:00 34.2 7 Este 30 Este 0 -- -- 29
2019-06-27 11:00:00 32.6 6 Este 23 Sudeste 0 -- -- 33
2019-06-27 10:00:00 29.7 5 Nordeste 19 Sudeste 0 -- -- 38
2019-06-27 09:00:00 25 2 Noroeste 13 Sudeste 0 -- -- 47
2019-06-27 08:00:00 22.1 2 Sur 8 Sudeste 0 -- -- 56
2019-06-27 07:00:00 21.8 0 Calma 12 Este 0 -- -- 53
2019-06-27 06:00:00 22.3 3 Este 15 Nordeste 0 -- -- 50
2019-06-27 05:00:00 22.9 2 Nordeste 12 Norte 0 -- -- 48
2019-06-27 04:00:00 23.9 5 Nordeste 16 Norte 0 -- -- 45
2019-06-27 03:00:00 25.2 6 Norte 27 Norte 0 -- -- 43
2019-06-27 02:00:00 25.5 5 Sudeste 14 Norte 0 -- -- 43
2019-06-27 01:00:00 26.5 3 Nordeste 20 Sur 0 -- -- 41
2019-06-27 00:00:00 27.8 9 Este 37 Este 0 -- -- 39
2019-06-26 23:00:00 28.8 11 Este 38 Nordeste 0 -- -- 37
2019-06-26 22:00:00 30.2 10 Este 40 Este 0 -- -- 34
2019-06-26 21:00:00 31.8 12 Este 41 Norte 0 -- -- 32
2019-06-26 20:00:00 33.5 13 Este 40 Nordeste 0 -- -- 29
2019-06-26 19:00:00 35.5 10 Este 44 Este 0 -- -- 27
2019-06-26 18:00:00 36.4 10 Este 39 Nordeste 0 -- -- 26
2019-06-26 17:00:00 37.3 9 Este 39 Este 0 -- -- 27
2019-06-26 16:00:00 36.5 10 Este 32 Este 0 -- -- 28
2019-06-26 15:00:00 35.6 10 Este 34 Nordeste 0 -- -- 29
2019-06-26 14:00:00 34.9 10 Este 36 Sudeste 0 -- -- 30
2019-06-26 13:00:00 33.4 9 Este 32 Sudeste 0 -- -- 32
2019-06-26 12:00:00 32.5 10 Este 35 Sudeste 0 -- -- 32
2019-06-26 11:00:00 31 10 Este 39 Este 0 -- -- 29
2019-06-26 10:00:00 28.5 8 Sudeste 23 Este 0 -- -- 36
2019-06-26 09:00:00 22 2 Oeste 9 Sudoeste 0 -- -- 79
2019-06-26 08:00:00 20.3 2 Sudoeste 5 Sudoeste 0 -- -- 84
2019-06-26 07:00:00 20.7 2 Sur 8 Sudoeste 0 -- -- 80
2019-06-26 06:00:00 22.1 4 Sudeste 9 Este 0 -- -- 68
2019-06-26 05:00:00 22.4 3 Sudeste 18 Este 0 -- -- 70
2019-06-26 04:00:00 22.3 4 Sudeste 20 Sudeste 0 -- -- 72
2019-06-26 03:00:00 23 4 Este 16 Sudeste 0 -- -- 69
2019-06-26 02:00:00 24.1 5 Este 21 Sudeste 0 -- -- 64
2019-06-26 01:00:00 25.4 4 Este 30 Este 0 -- -- 60
2019-06-26 00:00:00 27.2 4 Este 21 Nordeste 0 -- -- 53
2019-06-25 23:00:00 28.9 6 Nordeste 16 Este 0 -- -- 50
2019-06-25 22:00:00 30.3 4 Nordeste 14 Nordeste 0 -- -- 46
2019-06-25 21:00:00 32.1 4 Nordeste 20 Nordeste 0 -- -- 42
2019-06-25 20:00:00 33.4 5 Este 21 Este 0 -- -- 35
2019-06-25 19:00:00 34.1 6 Este 31 Este 0 -- -- 33
2019-06-25 18:00:00 34.6 7 Este 26 Este 0 -- -- 34
2019-06-25 17:00:00 34.4 8 Este 27 Nordeste 0 -- -- 34
2019-06-25 16:00:00 34 8 Este 26 Sudeste 0 -- -- 37
2019-06-25 15:00:00 33.1 8 Nordeste 24 Nordeste 0 -- -- 42
2019-06-25 14:00:00 32.5 5 Este 22 Norte 0 -- -- 43
2019-06-25 13:00:00 30.6 7 Nordeste 24 Este 0 -- -- 45
2019-06-25 12:00:00 29.1 6 Este 16 Sur 0 -- -- 43
2019-06-25 11:00:00 26.6 3 Este 8 Norte 0 -- -- 49
2019-06-25 10:00:00 24.3 3 Nordeste 6 Nordeste 0 -- -- 53
2019-06-25 09:00:00 21 2 Nordeste 4 Nordeste 0 -- -- 63
2019-06-25 08:00:00 17.9 2 Nordeste 4 Nordeste 0 -- -- 74
2019-06-25 07:00:00 17.4 0 Calma 5 Nordeste 0 -- -- 71
2019-06-25 06:00:00 18.1 0 Calma 4 Este 0 -- -- 67
2019-06-25 05:00:00 19.4 0 Calma 9 Nordeste 0 -- -- 61
2019-06-25 04:00:00 20.7 3 Nordeste 9 Nordeste 0 -- -- 55
2019-06-25 03:00:00 21.1 2 Sur 13 Norte 0 -- -- 53
2019-06-25 02:00:00 21.7 2 Este 9 Nordeste 0 -- -- 52
2019-06-25 01:00:00 22.8 3 Nordeste 12 Este 0 -- -- 49
2019-06-25 00:00:00 24.1 2 Este 9 Norte 0 -- -- 43
2019-06-24 23:00:00 25.1 0 Calma 6 Nordeste 0 -- -- 46
2019-06-24 22:00:00 26.6 0 Calma 5 Sur 0 -- -- 39
2019-06-24 21:00:00 28.7 0 Calma 10 Nordeste 0 -- -- 39
2019-06-24 20:00:00 30.7 3 Nordeste 15 Nordeste 0 -- -- 30
2019-06-24 19:00:00 32.1 5 Este 18 Noroeste 0 -- -- 27
2019-06-24 18:00:00 32.7 6 Nordeste 24 Este 0 -- -- 27
2019-06-24 17:00:00 33.5 8 Este 27 Este 0 -- -- 26
2019-06-24 16:00:00 32.2 8 Este 26 Nordeste 0 -- -- 26
2019-06-24 15:00:00 32.1 9 Este 27 Nordeste 0 -- -- 27
2019-06-24 14:00:00 31.4 8 Nordeste 26 Este 0 -- -- 30
2019-06-24 13:00:00 31 7 Este 22 Sudeste 0 -- -- 30
2019-06-24 12:00:00 30.3 8 Este 30 Este 0 -- -- 30
2019-06-24 11:00:00 28.9 8 Este 27 Sudeste 0 -- -- 32
2019-06-24 10:00:00 26.2 6 Este 27 Sudeste 0 -- -- 37
2019-06-24 09:00:00 23.1 5 Nordeste 16 Este 0 -- -- 44
2019-06-24 08:00:00 22.2 6 Nordeste 15 Nordeste 0 -- -- 46
2019-06-24 07:00:00 21.2 6 Nordeste 22 Este 0 -- -- 47
2019-06-24 06:00:00 21 7 Este 31 Nordeste 0 -- -- 48
2019-06-24 05:00:00 21.7 10 Este 26 Nordeste 0 -- -- 46
2019-06-24 04:00:00 22.5 9 Este 26 Este 0 -- -- 43
2019-06-24 03:00:00 22.9 6 Este 30 Este 0 -- -- 43
2019-06-24 02:00:00 23.7 9 Este 32 Este 0 -- -- 42
2019-06-24 01:00:00 24.7 9 Este 28 Este 0 -- -- 41
2019-06-24 00:00:00 26 8 Este 31 Este 0 -- -- 41
2019-06-23 23:00:00 27.6 8 Nordeste 24 Nordeste 0 -- -- 43
2019-06-23 22:00:00 29.8 6 Este 23 Este 0 -- -- 37
2019-06-23 21:00:00 31.9 7 Este 22 Sudeste 0 -- -- 36
2019-06-23 20:00:00 32.6 5 Este 23 Sudeste 0 -- -- 33
2019-06-23 19:00:00 34 7 Este 27 Nordeste 0 -- -- 31
2019-06-23 18:00:00 34.6 7 Nordeste 23 Nordeste 0 -- -- 31
2019-06-23 17:00:00 34.4 6 Nordeste 22 Nordeste 0 -- -- 33
2019-06-23 16:00:00 34.3 7 Nordeste 19 Nordeste 0 -- -- 34
2019-06-23 15:00:00 33.8 6 Nordeste 22 Nordeste 0 -- -- 35
2019-06-23 14:00:00 32.5 6 Este 21 Nordeste 0 -- -- 40
2019-06-23 13:00:00 31.2 6 Este 22 Este 0 -- -- 40
2019-06-23 12:00:00 29.4 8 Este 28 Nordeste 0 -- -- 42
2019-06-23 11:00:00 27.3 9 Este 30 Este 0 -- -- 47
2019-06-23 10:00:00 25 8 Este 23 Sudeste 0 -- -- 53
2019-06-23 09:00:00 22 6 Este 24 Este 0 -- -- 63
2019-06-23 08:00:00 19.7 5 Nordeste 21 Nordeste 0 -- -- 70
2019-06-23 07:00:00 19 6 Nordeste 21 Este 0 -- -- 73
2019-06-23 06:00:00 19.2 6 Nordeste 26 Este 0 -- -- 72
2019-06-23 05:00:00 19.7 8 Nordeste 22 Este 0 -- -- 72
2019-06-23 04:00:00 20.6 7 Este 22 Este 0 -- -- 69
2019-06-23 03:00:00 21.2 6 Nordeste 24 Norte 0 -- -- 66
2019-06-23 02:00:00 21.7 6 Nordeste 24 Nordeste 0 -- -- 61
2019-06-23 01:00:00 21.8 4 Nordeste 14 Nordeste 0 -- -- 57
2019-06-23 00:00:00 22.1 4 Nordeste 11 Nordeste 0 -- -- 54
2019-06-22 23:00:00 23.5 4 Nordeste 9 Nordeste 0 -- -- 49
2019-06-22 22:00:00 26.3 4 Nordeste 13 Nordeste 0 -- -- 42
2019-06-22 21:00:00 28 3 Nordeste 10 Nordeste 0 -- -- 36
2019-06-22 20:00:00 30 4 Nordeste 14 Este 0 -- -- 32
2019-06-22 19:00:00 30.5 3 Nordeste 12 Norte 0 -- -- 34
2019-06-22 18:00:00 31.2 4 Nordeste 22 Norte 0 -- -- 30
2019-06-22 17:00:00 31.1 4 Este 20 Nordeste 0 -- -- 33
2019-06-22 16:00:00 30.3 5 Nordeste 14 Nordeste 0 -- -- 32
2019-06-22 15:00:00 28.7 4 Nordeste 13 Nordeste 0 -- -- 40
2019-06-22 14:00:00 27.3 4 Sur 9 Sudoeste 0 -- -- 40
2019-06-22 13:00:00 24.7 2 Este 6 Nordeste 0 -- -- 44
2019-06-22 12:00:00 20.7 2 Sur 6 Sur 0 -- -- 58
2019-06-22 11:00:00 19.3 3 Sudoeste 9 Sudoeste 0 -- -- 60
2019-06-22 10:00:00 17.1 3 Sudoeste 9 Sudoeste 0 -- -- 70
2019-06-22 09:00:00 14 3 Sudoeste 10 Sudoeste 0 -- -- 79
2019-06-22 08:00:00 11.5 5 Sudoeste 10 Sudoeste 0 -- -- 89
2019-06-22 07:00:00 10.8 0 Calma 4 Sur 0 -- -- 90
2019-06-22 06:00:00 11.3 0 Calma 7 Norte 0 -- -- 87
2019-06-22 05:00:00 11.9 0 Calma 9 Noroeste 0 -- -- 84
2019-06-22 04:00:00 12.5 0 Calma 10 Sudoeste 0 -- -- 81
2019-06-22 03:00:00 13.1 3 Sudoeste 8 Sudoeste 0 -- -- 79
2019-06-22 02:00:00 13.6 3 Sudoeste 10 Sudoeste 0 -- -- 79
2019-06-22 01:00:00 14.7 4 Sudoeste 8 Sudoeste 0 -- -- 74
2019-06-22 00:00:00 15.8 3 Sudoeste 13 Oeste 0 -- -- 70
2019-06-21 23:00:00 17.2 3 Oeste 20 Noroeste 0 -- -- 65
2019-06-21 22:00:00 19 5 Oeste 23 Oeste 0 -- -- 61
2019-06-21 21:00:00 21.4 4 Oeste 24 Sudoeste 0 -- -- 53
2019-06-21 20:00:00 22.6 4 Oeste 19 Noroeste 0 -- -- 48
2019-06-21 19:00:00 23.6 5 Oeste 22 Noroeste 0 -- -- 48
2019-06-21 18:00:00 24.5 6 Oeste 26 Norte 0 -- -- 45
2019-06-21 17:00:00 25.4 7 Noroeste 21 Oeste 0 -- -- 45
2019-06-21 16:00:00 25.5 6 Noroeste 22 Norte 0 -- -- 46
2019-06-21 15:00:00 24.9 6 Noroeste 22 Noroeste 0 -- -- 52
2019-06-21 14:00:00 23.1 6 Noroeste 24 Norte 0 -- -- 54
2019-06-21 13:00:00 21.5 5 Noroeste 16 Oeste 0.2 -- -- 60
2019-06-21 12:00:00 19.4 4 Oeste 15 Oeste 0 -- -- 69
2019-06-21 11:00:00 17.9 5 Oeste 16 Noroeste 0 -- -- 76
2019-06-21 10:00:00 16.1 3 Oeste 15 Oeste 0 -- -- 85
2019-06-21 09:00:00 15.5 3 Oeste 9 Oeste 0 -- -- 88
2019-06-21 08:00:00 15.1 2 Sudoeste 9 Oeste 0 -- -- 89
2019-06-21 07:00:00 15 4 Oeste 18 Oeste 0 -- -- 89
2019-06-21 06:00:00 15.3 3 Oeste 10 Sudoeste 0 -- -- 91
2019-06-21 05:00:00 15.4 2 Sudoeste 15 Norte 3.4 -- -- 92
2019-06-21 04:00:00 15.8 5 Oeste 13 Noroeste 0.6 -- -- 89
2019-06-21 03:00:00 16.1 3 Oeste 13 Noroeste 0 -- -- 85
2019-06-21 02:00:00 16.2 4 Oeste 15 Oeste 0 -- -- 85
2019-06-21 01:00:00 16.7 2 Sudoeste 20 Norte 0 -- -- 85
2019-06-21 00:00:00 16.6 3 Noroeste 16 Noroeste 0 -- -- 85
2019-06-20 23:00:00 17.1 5 Oeste 18 Oeste 0 -- -- 83
2019-06-20 22:00:00 19.7 4 Noroeste 19 Sudoeste 2.2 -- -- 73
2019-06-20 21:00:00 21 5 Noroeste 21 Oeste 0 -- -- 63
2019-06-20 20:00:00 22 8 Oeste 28 Noroeste 0 -- -- 59
2019-06-20 19:00:00 24.1 5 Oeste 22 Noroeste 0 -- -- 54
2019-06-20 18:00:00 24.5 5 Oeste 24 Oeste 0 -- -- 53
2019-06-20 17:00:00 27.5 5 Oeste 18 Noroeste 0 -- -- 45
2019-06-20 16:00:00 28.8 4 Noroeste 16 Norte 0 -- -- 42
2019-06-20 15:00:00 28.1 5 Oeste 18 Sudoeste 0 -- -- 47
2019-06-20 14:00:00 27.3 4 Sudoeste 13 Norte 0 -- -- 48
2019-06-20 13:00:00 26.2 4 Oeste 14 Norte 0 -- -- 51
2019-06-20 12:00:00 24.6 4 Oeste 17 Noroeste 0 -- -- 54
2019-06-20 11:00:00 22.8 4 Oeste 20 Norte 0 -- -- 58
2019-06-20 10:00:00 20.2 4 Oeste 21 Noroeste 0 -- -- 66
2019-06-20 09:00:00 18.6 4 Oeste 12 Noroeste 0 -- -- 72
2019-06-20 08:00:00 16.7 4 Oeste 12 Sudoeste 0 -- -- 78
2019-06-20 07:00:00 15.7 3 Sudoeste 10 Oeste 0 -- -- 81
2019-06-20 06:00:00 15.7 2 Sudoeste 10 Noroeste 0 -- -- 81
2019-06-20 05:00:00 16.1 4 Oeste 13 Sur 0 -- -- 79
2019-06-20 04:00:00 16.8 4 Oeste 13 Oeste 0 -- -- 77
2019-06-20 03:00:00 17.9 3 Sudoeste 14 Oeste 0 -- -- 74
2019-06-20 02:00:00 19.5 4 Sudoeste 12 Sudoeste 0 -- -- 71
2019-06-20 01:00:00 21.4 0 Calma 5 Noroeste 0 -- -- 66
2019-06-20 00:00:00 22.2 0 Calma 11 Norte 0 -- -- 58
2019-06-19 23:00:00 23.3 7 Norte 24 Noroeste 0 -- -- 52
2019-06-19 22:00:00 26 4 Norte 17 Noroeste 0 -- -- 45
2019-06-19 21:00:00 28 3 Norte 10 Noroeste 0 -- -- 39
2019-06-19 20:00:00 29.3 3 Norte 16 Norte 0 -- -- 34
2019-06-19 19:00:00 29.9 9 Norte 17 Norte 0 -- -- 31
2019-06-19 18:00:00 30 4 Norte 10 Norte 0 -- -- 33
2019-06-19 17:00:00 30.2 4 Nordeste 14 Norte 0 -- -- 34
2019-06-19 16:00:00 29.5 3 Este 14 Sudeste 0 -- -- 35
2019-06-19 15:00:00 -- -- -- -- -- -- -- -- --
2019-06-19 14:00:00 28.3 3 Sudoeste 16 Sudoeste 0 -- -- 36
2019-06-19 13:00:00 28.7 4 Sudoeste -- -- -- -- -- 35
2019-06-19 12:00:00 -- -- -- -- -- -- -- -- --
2019-06-19 11:00:00 -- -- -- -- -- -- -- -- --
2019-06-19 10:00:00 -- -- -- -- -- -- -- -- --
2019-06-19 09:00:00 -- -- -- -- -- -- -- -- --
2019-06-19 08:00:00 -- -- -- -- -- -- -- -- --
2019-06-19 07:00:00 -- -- -- -- -- -- -- -- --
2019-06-19 06:00:00 -- -- -- -- -- -- -- -- --
2019-06-19 05:00:00 -- -- -- -- -- -- -- -- --
2019-06-19 04:00:00 -- -- -- -- -- -- -- -- --
2019-06-19 03:00:00 -- -- -- -- -- -- -- -- --
2019-06-19 02:00:00 -- -- -- -- -- -- -- -- --
2019-06-19 01:00:00 -- -- -- -- -- -- -- -- --
2019-06-19 00:00:00 -- -- -- -- -- -- -- -- --
2019-06-18 23:00:00 -- -- -- -- -- -- -- -- --
2019-06-18 22:00:00 -- -- -- -- -- -- -- -- --
2019-06-18 21:00:00 -- -- -- -- -- -- -- -- --
2019-06-18 20:00:00 -- -- -- -- -- -- -- -- --
2019-06-18 19:00:00 33.8 3 Sudeste 20 Sudoeste 0 -- -- 25
2019-06-18 18:00:00 35.2 5 Sur 20 Oeste 0 -- -- 22
2019-06-18 17:00:00 35.7 4 Oeste 19 Norte 0 -- -- 23
2019-06-18 16:00:00 34.6 7 Sur 21 Sur 0 -- -- 22
2019-06-18 15:00:00 33.3 5 Sudeste 19 Norte 0 -- -- 24
2019-06-18 14:00:00 32.7 6 Este 24 Este 0 -- -- 27
2019-06-18 13:00:00 30.8 9 Este 25 Nordeste 0 -- -- 29
2019-06-18 12:00:00 28.2 9 Este 27 Nordeste 0 -- -- 31
2019-06-18 11:00:00 25.6 5 Este 17 Este 0 -- -- 39
2019-06-18 10:00:00 23.9 6 Este 30 Este 0 -- -- 37
2019-06-18 09:00:00 21.3 10 Nordeste 31 Este 0 -- -- 47
2019-06-18 08:00:00 19.7 7 Este 23 Nordeste 0 -- -- 48
2019-06-18 07:00:00 19.7 5 Sudeste 25 Nordeste 0 -- -- 46
2019-06-18 06:00:00 20 5 Nordeste 20 Nordeste 0 -- -- 46
2019-06-18 05:00:00 20.8 7 Nordeste 21 Este 0 -- -- 45
2019-06-18 04:00:00 21.4 7 Este 25 Nordeste 0 -- -- 46
2019-06-18 03:00:00 21.8 7 Este 30 Sudeste 0 -- -- 49
2019-06-18 02:00:00 22.5 6 Este 23 Nordeste 0 -- -- 52
2019-06-18 01:00:00 23.5 5 Este 17 Este 0 -- -- 52
2019-06-18 00:00:00 25.5 6 Nordeste 17 Nordeste 0 -- -- 40
2019-06-17 23:00:00 27.3 3 Este 14 Sudeste 0 -- -- 36
2019-06-17 22:00:00 28.2 4 Este 11 Sudeste 0 -- -- 30
2019-06-17 21:00:00 29.6 4 Este 14 Sudeste 0 -- -- 29
2019-06-17 20:00:00 30.7 3 Nordeste 14 Este 0 -- -- 25
2019-06-17 19:00:00 32.3 5 Este 17 Nordeste 0 -- -- 21
2019-06-17 18:00:00 33.7 4 Sudeste 12 Sudeste 0 -- -- 21
2019-06-17 17:00:00 34.3 3 Sur 13 Sudeste 0 -- -- 24
2019-06-17 16:00:00 33.8 4 Sudeste 13 Sudoeste 0 -- -- 21
2019-06-17 15:00:00 32.7 4 Sudoeste 16 Sudoeste 0 -- -- 30
2019-06-17 14:00:00 31.6 4 Sur 14 Sudoeste 0 -- -- 31
2019-06-17 13:00:00 29.9 3 Oeste 12 Sudoeste 0 -- -- 36
2019-06-17 12:00:00 28.2 3 Sudeste 13 Nordeste 0 -- -- 45
2019-06-17 11:00:00 25.6 5 Nordeste 13 Nordeste 0 -- -- 41
2019-06-17 10:00:00 23 4 Nordeste 14 Norte 0 -- -- 48
2019-06-17 09:00:00 18.9 4 Nordeste 9 Nordeste 0 -- -- 62
2019-06-17 08:00:00 15.9 0 Calma 6 Este 0 -- -- 73
2019-06-17 07:00:00 14.8 2 Nordeste 7 Nordeste 0 -- -- 76
2019-06-17 06:00:00 15.9 4 Nordeste 10 Nordeste 0 -- -- 73
2019-06-17 05:00:00 16.6 4 Nordeste 16 Nordeste 0 -- -- 65
2019-06-17 04:00:00 17.6 4 Nordeste 15 Este 0 -- -- 62
2019-06-17 03:00:00 17.6 4 Nordeste 12 Nordeste 0 -- -- 59
2019-06-17 02:00:00 17.9 2 Norte 6 Nordeste 0 -- -- 59
2019-06-17 01:00:00 18.5 0 Calma 8 Norte 0 -- -- 62
2019-06-17 00:00:00 19.5 0 Calma 4 Nordeste 0 -- -- 57
2019-06-16 23:00:00 21.1 0 Calma 3 Nordeste 0 -- -- 52
2019-06-16 22:00:00 23.3 0 Calma 4 Sudeste 0 -- -- 42
2019-06-16 21:00:00 26.2 0 Calma 6 Sur 0 -- -- 39
2019-06-16 20:00:00 28.2 3 Nordeste 9 Nordeste 0 -- -- 30
2019-06-16 19:00:00 29.2 3 Nordeste 13 Norte 0 -- -- 29
2019-06-16 18:00:00 29.7 4 Nordeste 13 Norte 0 -- -- 25
2019-06-16 17:00:00 30.4 4 Nordeste 14 Noroeste 0 -- -- 27
2019-06-16 16:00:00 29.8 3 Sudeste 12 Sur 0 -- -- 32
2019-06-16 15:00:00 28.2 3 Norte 10 Sudoeste 0 -- -- 36
2019-06-16 14:00:00 26.9 4 Sudoeste 14 Sudoeste 0 -- -- 41
2019-06-16 13:00:00 25.1 3 Sudoeste 11 Sudoeste 0 -- -- 40
2019-06-16 12:00:00 23.1 4 Sudoeste 10 Oeste 0 -- -- 49
2019-06-16 11:00:00 20 4 Sur 10 Sudoeste 0 -- -- 50
2019-06-16 10:00:00 16.8 3 Sudoeste 8 Sudoeste 0 -- -- 65
2019-06-16 09:00:00 13 3 Norte 6 Norte 0 -- -- 75
2019-06-16 08:00:00 9.6 4 Nordeste 8 Nordeste 0 -- -- 88
2019-06-16 07:00:00 9 0 Calma 5 Nordeste 0 -- -- 85
2019-06-16 06:00:00 10.4 2 Nordeste 6 Noroeste 0 -- -- 83
2019-06-16 05:00:00 11.3 0 Calma 3 Oeste 0 -- -- 83
2019-06-16 04:00:00 12.2 0 Calma 8 Noroeste 0 -- -- 78
2019-06-16 03:00:00 13.1 2 Sudeste 8 Oeste 0 -- -- 75
2019-06-16 02:00:00 13.6 3 Sur 8 Oeste 0 -- -- 70
2019-06-16 01:00:00 14.7 3 Sudoeste 15 Noroeste 0 -- -- 66
2019-06-16 00:00:00 15.8 2 Sudoeste 8 Oeste 0 -- -- 65